Century Venus — 3FXD2 — position and weather

sailwx.info

Track history (hours):
 
Tides and Currents Weather Stations Pressure Air Temp Water Temp Dewpoint Dewpoint Depression Visibility Wind Speed Wind Dir Waves Ship Positions

Century Venus

Last reported at 2015-Jun-29 12:33 UTC. Time now 2015-Jul-06 02:52 UTC.
Position N 29°20' W 094°46'.

Length 137 m; draft 7.8 m.

Type: Cargo ship. MMSI: 357069000.

Date/timePositionNaut miles runAvg speedWind from/ knotsBaromVisibWave heightAir tempDewpointWater temp
2015-Jun-29 12:33N 29°20' W 094°46'  
2015-Jun-26 15:33N 27°41' W 082°35'1110.3
2015-Jun-26 14:31N 27°49' W 082°27'4 3.8
2015-Jun-26 13:33N 27°51' W 082°24'0 0.0
2015-Jun-26 12:33N 27°51' W 082°24'0 0.0
2015-Jun-26 11:33N 27°51' W 082°24'0 0.0
2015-Jun-26 10:33N 27°51' W 082°24'0 0.0
2015-Jun-26 09:33N 27°51' W 082°24'0 0.0
2015-Jun-26 08:33N 27°51' W 082°24'0 0.0
2015-Jun-26 07:33N 27°51' W 082°24'0 0.0
2015-Jun-26 06:33N 27°51' W 082°24'0 0.0
2015-Jun-26 05:33N 27°51' W 082°24'0 0.0
2015-Jun-26 04:34N 27°51' W 082°24'0 0.0
2015-Jun-26 03:33N 27°51' W 082°24'0 0.0
2015-Jun-26 02:33N 27°51' W 082°24'0 0.0
2015-Jun-26 01:33N 27°51' W 082°24'0 0.0
2015-Jun-26 00:33N 27°51' W 082°24'0 0.0
2015-Jun-25 23:33N 27°51' W 082°24'0 0.0
2015-Jun-25 22:30N 27°51' W 082°24'1 1.0
2015-Jun-25 21:33N 27°51' W 082°25'4 3.7
2015-Jun-25 20:33N 27°55' W 082°26'1 0.7
2015-Jun-25 19:32N 27°55' W 082°25'0 0.0
2015-Jun-25 18:29N 27°55' W 082°25'0 0.0
2015-Jun-25 17:32N 27°55' W 082°25'0 0.0
2015-Jun-25 16:32N 27°55' W 082°25'0 0.0
2015-Jun-25 15:32N 27°55' W 082°25'0 0.0
2015-Jun-25 14:32N 27°55' W 082°25'0 0.0
2015-Jun-25 13:32N 27°55' W 082°25'0 0.0
2015-Jun-25 12:32N 27°55' W 082°25'0 0.0
2015-Jun-25 11:32N 27°55' W 082°25'0 0.0
2015-Jun-25 10:32N 27°55' W 082°25'0 0.0
2015-Jun-25 09:32N 27°55' W 082°25'0 0.0
2015-Jun-25 08:32N 27°55' W 082°25'0 0.0
2015-Jun-25 07:32N 27°55' W 082°25'0 0.0
2015-Jun-25 06:32N 27°55' W 082°25'0 0.0
2015-Jun-25 05:32N 27°55' W 082°25'0 0.0
2015-Jun-25 04:32N 27°55' W 082°25'0 0.0
2015-Jun-25 03:32N 27°55' W 082°25'0 0.0
2015-Jun-25 02:29N 27°55' W 082°25'0 0.0
2015-Jun-25 01:32N 27°55' W 082°25'0 0.0
2015-Jun-25 00:32N 27°55' W 082°25'0 0.0
2015-Jun-24 23:32N 27°55' W 082°25'0 0.0
2015-Jun-24 22:32N 27°55' W 082°25'0 0.0
2015-Jun-24 21:32N 27°55' W 082°25'0 0.0
2015-Jun-24 20:32N 27°55' W 082°25'0 0.0
2015-Jun-24 19:29N 27°55' W 082°25'0 0.0
2015-Jun-24 18:32N 27°55' W 082°25'0 0.0
2015-Jun-24 17:32N 27°55' W 082°25'0 0.0
2015-Jun-24 16:32N 27°55' W 082°25'0 0.0
2015-Jun-24 15:33N 27°55' W 082°25'0 0.0
2015-Jun-24 14:33N 27°55' W 082°25'7 7.4
2015-Jun-24 13:33N 27°48' W 082°28'1311.7
2015-Jun-24 12:25N 27°38' W 082°38'2311.6
2015-Jun-24 10:26N 27°32' W 083°03'1512.6
2015-Jun-24 09:15N 27°18' W 083°10'  
Track history (hours):
 
Tides and Currents Weather Stations Pressure Air Temp Water Temp Dewpoint Dewpoint Depression Visibility Wind Speed Wind Dir Waves Ship Positions

Century Venus

Last reported at 2015-Jun-29 12:33 UTC. Time now 2015-Jul-06 02:52 UTC.
Position N 29°20' W 094°46'.

Length 137 m; draft 7.8 m.

Type: Cargo ship. MMSI: 357069000.

Date/timePositionNaut miles runAvg speedWind from/ knotsBaromVisibWave heightAir tempDewpointWater temp
2015-Jun-29 12:33N 29°20' W 094°46'  
2015-Jun-26 15:33N 27°41' W 082°35'1110.3
2015-Jun-26 14:31N 27°49' W 082°27'4 3.8
2015-Jun-26 13:33N 27°51' W 082°24'0 0.0
2015-Jun-26 12:33N 27°51' W 082°24'0 0.0
2015-Jun-26 11:33N 27°51' W 082°24'0 0.0
2015-Jun-26 10:33N 27°51' W 082°24'0 0.0
2015-Jun-26 09:33N 27°51' W 082°24'0 0.0
2015-Jun-26 08:33N 27°51' W 082°24'0 0.0
2015-Jun-26 07:33N 27°51' W 082°24'0 0.0
2015-Jun-26 06:33N 27°51' W 082°24'0 0.0
2015-Jun-26 05:33N 27°51' W 082°24'0 0.0
2015-Jun-26 04:34N 27°51' W 082°24'0 0.0
2015-Jun-26 03:33N 27°51' W 082°24'0 0.0
2015-Jun-26 02:33N 27°51' W 082°24'0 0.0
2015-Jun-26 01:33N 27°51' W 082°24'0 0.0
2015-Jun-26 00:33N 27°51' W 082°24'0 0.0
2015-Jun-25 23:33N 27°51' W 082°24'0 0.0
2015-Jun-25 22:30N 27°51' W 082°24'1 1.0
2015-Jun-25 21:33N 27°51' W 082°25'4 3.7
2015-Jun-25 20:33N 27°55' W 082°26'1 0.7
2015-Jun-25 19:32N 27°55' W 082°25'0 0.0
2015-Jun-25 18:29N 27°55' W 082°25'0 0.0
2015-Jun-25 17:32N 27°55' W 082°25'0 0.0
2015-Jun-25 16:32N 27°55' W 082°25'0 0.0
2015-Jun-25 15:32N 27°55' W 082°25'0 0.0
2015-Jun-25 14:32N 27°55' W 082°25'0 0.0
2015-Jun-25 13:32N 27°55' W 082°25'0 0.0
2015-Jun-25 12:32N 27°55' W 082°25'0 0.0
2015-Jun-25 11:32N 27°55' W 082°25'0 0.0
2015-Jun-25 10:32N 27°55' W 082°25'0 0.0
2015-Jun-25 09:32N 27°55' W 082°25'0 0.0
2015-Jun-25 08:32N 27°55' W 082°25'0 0.0
2015-Jun-25 07:32N 27°55' W 082°25'0 0.0
2015-Jun-25 06:32N 27°55' W 082°25'0 0.0
2015-Jun-25 05:32N 27°55' W 082°25'0 0.0
2015-Jun-25 04:32N 27°55' W 082°25'0 0.0
2015-Jun-25 03:32N 27°55' W 082°25'0 0.0
2015-Jun-25 02:29N 27°55' W 082°25'0 0.0
2015-Jun-25 01:32N 27°55' W 082°25'0 0.0
2015-Jun-25 00:32N 27°55' W 082°25'0 0.0
2015-Jun-24 23:32N 27°55' W 082°25'0 0.0
2015-Jun-24 22:32N 27°55' W 082°25'0 0.0
2015-Jun-24 21:32N 27°55' W 082°25'0 0.0
2015-Jun-24 20:32N 27°55' W 082°25'0 0.0
2015-Jun-24 19:29N 27°55' W 082°25'0 0.0
2015-Jun-24 18:32N 27°55' W 082°25'0 0.0
2015-Jun-24 17:32N 27°55' W 082°25'0 0.0
2015-Jun-24 16:32N 27°55' W 082°25'0 0.0
2015-Jun-24 15:33N 27°55' W 082°25'0 0.0
2015-Jun-24 14:33N 27°55' W 082°25'7 7.4
2015-Jun-24 13:33N 27°48' W 082°28'1311.7
2015-Jun-24 12:25N 27°38' W 082°38'2311.6
2015-Jun-24 10:26N 27°32' W 083°03'1512.6
2015-Jun-24 09:15N 27°18' W 083°10'  

Dump ship's entire track history